sensor_id;sensor_type;location;lat;lon;timestamp;temperature;humidity
45044;DHT22;30784;48.490;9.688;2022-10-31T00:02:18;17.90;41.20
45044;DHT22;30784;48.490;9.688;2022-10-31T00:04:43;17.80;41.10
45044;DHT22;30784;48.490;9.688;2022-10-31T00:07:09;17.80;41.60
45044;DHT22;30784;48.490;9.688;2022-10-31T00:09:34;17.80;41.00
45044;DHT22;30784;48.490;9.688;2022-10-31T00:12:00;17.70;41.00
45044;DHT22;30784;48.490;9.688;2022-10-31T00:14:25;17.70;41.00
45044;DHT22;30784;48.490;9.688;2022-10-31T00:16:51;17.70;41.00
45044;DHT22;30784;48.490;9.688;2022-10-31T00:19:16;17.70;41.00
45044;DHT22;30784;48.490;9.688;2022-10-31T00:21:42;17.60;41.00
45044;DHT22;30784;48.490;9.688;2022-10-31T00:24:08;17.60;41.00
45044;DHT22;30784;48.490;9.688;2022-10-31T00:26:33;17.60;41.10
45044;DHT22;30784;48.490;9.688;2022-10-31T00:28:59;17.60;41.10
45044;DHT22;30784;48.490;9.688;2022-10-31T00:31:25;17.60;41.10
45044;DHT22;30784;48.490;9.688;2022-10-31T00:33:50;17.60;41.20
45044;DHT22;30784;48.490;9.688;2022-10-31T00:36:18;17.60;41.20
45044;DHT22;30784;48.490;9.688;2022-10-31T00:38:45;17.60;41.30
45044;DHT22;30784;48.490;9.688;2022-10-31T00:41:11;17.50;41.20
45044;DHT22;30784;48.490;9.688;2022-10-31T00:43:38;17.50;41.40
45044;DHT22;30784;48.490;9.688;2022-10-31T00:46:03;17.50;41.50
45044;DHT22;30784;48.490;9.688;2022-10-31T00:48:29;17.60;41.60
45044;DHT22;30784;48.490;9.688;2022-10-31T00:50:55;17.60;41.80
45044;DHT22;30784;48.490;9.688;2022-10-31T00:53:21;17.60;41.80
45044;DHT22;30784;48.490;9.688;2022-10-31T00:55:47;17.60;41.90
45044;DHT22;30784;48.490;9.688;2022-10-31T00:58:12;17.60;42.00
45044;DHT22;30784;48.490;9.688;2022-10-31T01:00:38;17.60;42.00
45044;DHT22;30784;48.490;9.688;2022-10-31T01:03:04;17.60;42.10
45044;DHT22;30784;48.490;9.688;2022-10-31T01:05:29;17.60;42.10
45044;DHT22;30784;48.490;9.688;2022-10-31T01:07:55;17.60;42.30
45044;DHT22;30784;48.490;9.688;2022-10-31T01:10:21;17.60;42.40
45044;DHT22;30784;48.490;9.688;2022-10-31T01:12:48;17.60;42.50
45044;DHT22;30784;48.490;9.688;2022-10-31T01:15:16;17.70;42.60
45044;DHT22;30784;48.490;9.688;2022-10-31T01:17:42;17.60;42.80
45044;DHT22;30784;48.490;9.688;2022-10-31T01:20:08;17.70;43.00
45044;DHT22;30784;48.490;9.688;2022-10-31T01:22:34;17.70;43.00
45044;DHT22;30784;48.490;9.688;2022-10-31T01:25:00;17.70;43.10
45044;DHT22;30784;48.490;9.688;2022-10-31T01:27:26;17.70;43.10
45044;DHT22;30784;48.490;9.688;2022-10-31T01:29:52;17.70;43.30
45044;DHT22;30784;48.490;9.688;2022-10-31T01:32:17;17.70;43.40
45044;DHT22;30784;48.490;9.688;2022-10-31T01:34:43;17.70;43.40
45044;DHT22;30784;48.490;9.688;2022-10-31T01:37:08;17.70;43.40
45044;DHT22;30784;48.490;9.688;2022-10-31T01:39:34;17.90;43.50
45044;DHT22;30784;48.490;9.688;2022-10-31T01:41:59;17.80;43.60
45044;DHT22;30784;48.490;9.688;2022-10-31T01:47:15;17.90;43.90
45044;DHT22;30784;48.490;9.688;2022-10-31T01:49:46;17.90;43.30
45044;DHT22;30784;48.490;9.688;2022-10-31T01:52:27;17.90;43.80
45044;DHT22;30784;48.490;9.688;2022-10-31T01:54:59;17.90;43.80
45044;DHT22;30784;48.490;9.688;2022-10-31T01:57:27;17.90;43.80
45044;DHT22;30784;48.490;9.688;2022-10-31T01:59:57;17.90;43.80
45044;DHT22;30784;48.490;9.688;2022-10-31T02:02:25;18.00;44.00
45044;DHT22;30784;48.490;9.688;2022-10-31T02:04:51;18.00;44.00
45044;DHT22;30784;48.490;9.688;2022-10-31T02:07:25;18.00;44.00
45044;DHT22;30784;48.490;9.688;2022-10-31T02:09:53;18.00;44.00
45044;DHT22;30784;48.490;9.688;2022-10-31T02:12:19;18.00;44.10
45044;DHT22;30784;48.490;9.688;2022-10-31T02:14:46;18.00;44.20
45044;DHT22;30784;48.490;9.688;2022-10-31T02:17:12;18.00;44.30
45044;DHT22;30784;48.490;9.688;2022-10-31T02:19:56;18.00;44.30
45044;DHT22;30784;48.490;9.688;2022-10-31T02:23:09;18.00;44.60
45044;DHT22;30784;48.490;9.688;2022-10-31T02:37:10;18.00;44.40
45044;DHT22;30784;48.490;9.688;2022-10-31T02:39:54;18.00;44.30
45044;DHT22;30784;48.490;9.688;2022-10-31T02:47:35;18.00;44.70
45044;DHT22;30784;48.490;9.688;2022-10-31T02:50:10;18.00;44.70
45044;DHT22;30784;48.490;9.688;2022-10-31T02:52:37;18.00;44.60
45044;DHT22;30784;48.490;9.688;2022-10-31T02:57:48;17.90;44.60
45044;DHT22;30784;48.490;9.688;2022-10-31T03:00:14;18.00;44.90
45044;DHT22;30784;48.490;9.688;2022-10-31T03:03:07;18.00;45.50
45044;DHT22;30784;48.490;9.688;2022-10-31T03:05:59;18.00;44.60
45044;DHT22;30784;48.490;9.688;2022-10-31T03:08:35;18.00;44.70
45044;DHT22;30784;48.490;9.688;2022-10-31T03:11:05;18.00;44.90
45044;DHT22;30784;48.490;9.688;2022-10-31T03:13:49;18.00;44.90
45044;DHT22;30784;48.490;9.688;2022-10-31T03:16:46;18.00;44.70
45044;DHT22;30784;48.490;9.688;2022-10-31T03:19:16;18.00;44.60
45044;DHT22;30784;48.490;9.688;2022-10-31T03:21:54;18.00;45.00
45044;DHT22;30784;48.490;9.688;2022-10-31T03:24:22;17.90;44.70
45044;DHT22;30784;48.490;9.688;2022-10-31T03:26:52;17.90;45.00
45044;DHT22;30784;48.490;9.688;2022-10-31T03:29:21;17.90;45.00
45044;DHT22;30784;48.490;9.688;2022-10-31T03:31:53;17.90;45.10
45044;DHT22;30784;48.490;9.688;2022-10-31T03:34:21;17.90;45.10
45044;DHT22;30784;48.490;9.688;2022-10-31T03:36:50;17.80;45.10
45044;DHT22;30784;48.490;9.688;2022-10-31T03:39:19;17.80;45.10
45044;DHT22;30784;48.490;9.688;2022-10-31T03:41:54;17.80;45.20
45044;DHT22;30784;48.490;9.688;2022-10-31T03:44:22;17.80;45.30
45044;DHT22;30784;48.490;9.688;2022-10-31T03:46:49;17.80;45.30
45044;DHT22;30784;48.490;9.688;2022-10-31T03:49:15;17.80;45.40
45044;DHT22;30784;48.490;9.688;2022-10-31T03:54:43;17.80;45.40
45044;DHT22;30784;48.490;9.688;2022-10-31T03:57:29;17.70;45.10
45044;DHT22;30784;48.490;9.688;2022-10-31T04:00:04;17.70;45.10
45044;DHT22;30784;48.490;9.688;2022-10-31T04:02:32;17.70;45.60
45044;DHT22;30784;48.490;9.688;2022-10-31T04:04:59;17.70;45.70
45044;DHT22;30784;48.490;9.688;2022-10-31T04:07:28;17.70;45.70
45044;DHT22;30784;48.490;9.688;2022-10-31T04:09:56;17.70;45.60
45044;DHT22;30784;48.490;9.688;2022-10-31T04:12:23;17.70;45.70
45044;DHT22;30784;48.490;9.688;2022-10-31T04:14:50;17.70;45.70
45044;DHT22;30784;48.490;9.688;2022-10-31T04:17:18;17.70;45.80
45044;DHT22;30784;48.490;9.688;2022-10-31T04:19:45;17.70;45.80
45044;DHT22;30784;48.490;9.688;2022-10-31T04:22:10;17.60;46.30
45044;DHT22;30784;48.490;9.688;2022-10-31T04:24:38;17.70;45.80
45044;DHT22;30784;48.490;9.688;2022-10-31T04:27:04;17.70;45.80
45044;DHT22;30784;48.490;9.688;2022-10-31T04:29:30;17.60;45.80
45044;DHT22;30784;48.490;9.688;2022-10-31T04:31:55;17.60;45.80
45044;DHT22;30784;48.490;9.688;2022-10-31T04:34:21;17.60;45.80
45044;DHT22;30784;48.490;9.688;2022-10-31T04:36:46;17.60;45.90
45044;DHT22;30784;48.490;9.688;2022-10-31T04:39:12;17.60;45.90
45044;DHT22;30784;48.490;9.688;2022-10-31T04:41:37;17.50;45.80
45044;DHT22;30784;48.490;9.688;2022-10-31T04:44:03;17.50;45.80
45044;DHT22;30784;48.490;9.688;2022-10-31T04:46:28;17.50;45.80
45044;DHT22;30784;48.490;9.688;2022-10-31T04:48:54;17.40;45.80
45044;DHT22;30784;48.490;9.688;2022-10-31T04:51:19;17.40;45.80
45044;DHT22;30784;48.490;9.688;2022-10-31T04:53:45;17.40;45.70
45044;DHT22;30784;48.490;9.688;2022-10-31T04:56:11;17.40;45.70
45044;DHT22;30784;48.490;9.688;2022-10-31T04:58:36;17.30;45.70
45044;DHT22;30784;48.490;9.688;2022-10-31T05:01:02;17.40;45.60
45044;DHT22;30784;48.490;9.688;2022-10-31T05:03:27;17.40;45.80
45044;DHT22;30784;48.490;9.688;2022-10-31T05:05:53;17.40;45.90
45044;DHT22;30784;48.490;9.688;2022-10-31T05:08:18;17.30;45.80
45044;DHT22;30784;48.490;9.688;2022-10-31T05:10:44;17.30;45.80
45044;DHT22;30784;48.490;9.688;2022-10-31T05:13:09;17.30;45.90
45044;DHT22;30784;48.490;9.688;2022-10-31T05:15:35;17.30;45.90
45044;DHT22;30784;48.490;9.688;2022-10-31T05:18:00;17.30;45.90
45044;DHT22;30784;48.490;9.688;2022-10-31T05:20:28;17.30;46.00
45044;DHT22;30784;48.490;9.688;2022-10-31T05:22:55;17.20;46.00
45044;DHT22;30784;48.490;9.688;2022-10-31T05:25:23;17.20;46.00
45044;DHT22;30784;48.490;9.688;2022-10-31T05:27:51;17.20;46.10
45044;DHT22;30784;48.490;9.688;2022-10-31T05:30:18;17.20;46.10
45044;DHT22;30784;48.490;9.688;2022-10-31T05:32:47;17.10;46.20
45044;DHT22;30784;48.490;9.688;2022-10-31T05:35:19;17.10;46.20
45044;DHT22;30784;48.490;9.688;2022-10-31T05:37:45;17.10;46.20
45044;DHT22;30784;48.490;9.688;2022-10-31T05:40:13;17.00;46.10
45044;DHT22;30784;48.490;9.688;2022-10-31T05:42:40;17.00;46.10
45044;DHT22;30784;48.490;9.688;2022-10-31T05:45:10;17.00;46.20
45044;DHT22;30784;48.490;9.688;2022-10-31T05:47:36;17.00;46.30
45044;DHT22;30784;48.490;9.688;2022-10-31T05:50:02;17.00;46.30
45044;DHT22;30784;48.490;9.688;2022-10-31T05:52:27;17.00;46.40
45044;DHT22;30784;48.490;9.688;2022-10-31T05:54:53;17.00;46.50
45044;DHT22;30784;48.490;9.688;2022-10-31T05:57:18;16.90;46.40
45044;DHT22;30784;48.490;9.688;2022-10-31T05:59:44;17.00;46.70
45044;DHT22;30784;48.490;9.688;2022-10-31T06:02:09;16.90;46.70
45044;DHT22;30784;48.490;9.688;2022-10-31T06:04:35;17.00;46.90
45044;DHT22;30784;48.490;9.688;2022-10-31T06:07:00;16.90;46.80
45044;DHT22;30784;48.490;9.688;2022-10-31T06:09:26;16.90;47.00
45044;DHT22;30784;48.490;9.688;2022-10-31T06:11:51;16.80;47.00
45044;DHT22;30784;48.490;9.688;2022-10-31T06:14:17;16.80;47.00
45044;DHT22;30784;48.490;9.688;2022-10-31T06:16:43;16.80;47.10
45044;DHT22;30784;48.490;9.688;2022-10-31T06:19:08;16.80;47.20
45044;DHT22;30784;48.490;9.688;2022-10-31T06:21:34;16.70;47.20
45044;DHT22;30784;48.490;9.688;2022-10-31T06:23:59;16.70;47.30
45044;DHT22;30784;48.490;9.688;2022-10-31T06:26:25;16.70;47.20
45044;DHT22;30784;48.490;9.688;2022-10-31T06:28:50;16.70;47.30
45044;DHT22;30784;48.490;9.688;2022-10-31T06:31:16;16.70;47.30
45044;DHT22;30784;48.490;9.688;2022-10-31T06:33:42;16.70;47.30
45044;DHT22;30784;48.490;9.688;2022-10-31T06:36:08;16.80;47.40
45044;DHT22;30784;48.490;9.688;2022-10-31T06:38:34;16.80;47.40
45044;DHT22;30784;48.490;9.688;2022-10-31T06:41:06;16.80;47.50
45044;DHT22;30784;48.490;9.688;2022-10-31T06:43:32;16.80;48.00
45044;DHT22;30784;48.490;9.688;2022-10-31T06:45:57;16.90;47.60
45044;DHT22;30784;48.490;9.688;2022-10-31T06:48:23;16.90;47.60
45044;DHT22;30784;48.490;9.688;2022-10-31T06:50:49;17.00;47.70
45044;DHT22;30784;48.490;9.688;2022-10-31T06:53:14;17.00;47.70
45044;DHT22;30784;48.490;9.688;2022-10-31T06:55:40;17.10;47.80
45044;DHT22;30784;48.490;9.688;2022-10-31T06:58:08;17.20;47.80
45044;DHT22;30784;48.490;9.688;2022-10-31T07:00:34;17.20;47.90
45044;DHT22;30784;48.490;9.688;2022-10-31T07:03:05;17.30;47.90
45044;DHT22;30784;48.490;9.688;2022-10-31T07:05:31;17.40;48.00
45044;DHT22;30784;48.490;9.688;2022-10-31T07:07:59;17.50;48.20
45044;DHT22;30784;48.490;9.688;2022-10-31T07:10:26;17.60;48.20
45044;DHT22;30784;48.490;9.688;2022-10-31T07:12:56;17.70;48.20
45044;DHT22;30784;48.490;9.688;2022-10-31T07:15:26;17.80;48.70
45044;DHT22;30784;48.490;9.688;2022-10-31T07:17:52;17.90;48.20
45044;DHT22;30784;48.490;9.688;2022-10-31T07:20:17;18.10;48.10
45044;DHT22;30784;48.490;9.688;2022-10-31T07:22:43;18.20;48.00
45044;DHT22;30784;48.490;9.688;2022-10-31T07:25:10;18.40;48.00
45044;DHT22;30784;48.490;9.688;2022-10-31T07:27:39;18.40;47.60
45044;DHT22;30784;48.490;9.688;2022-10-31T07:30:06;18.60;47.60
45044;DHT22;30784;48.490;9.688;2022-10-31T07:32:46;18.70;48.00
45044;DHT22;30784;48.490;9.688;2022-10-31T07:35:17;18.80;47.40
45044;DHT22;30784;48.490;9.688;2022-10-31T07:37:43;18.90;47.20
45044;DHT22;30784;48.490;9.688;2022-10-31T07:40:10;19.00;47.10
45044;DHT22;30784;48.490;9.688;2022-10-31T07:42:36;19.10;47.10
45044;DHT22;30784;48.490;9.688;2022-10-31T07:45:04;19.10;47.00
45044;DHT22;30784;48.490;9.688;2022-10-31T07:47:30;19.20;47.10
45044;DHT22;30784;48.490;9.688;2022-10-31T07:49:55;19.30;47.30
45044;DHT22;30784;48.490;9.688;2022-10-31T07:52:21;19.40;47.30
45044;DHT22;30784;48.490;9.688;2022-10-31T07:54:46;19.50;47.90
45044;DHT22;30784;48.490;9.688;2022-10-31T07:57:12;19.50;47.50
45044;DHT22;30784;48.490;9.688;2022-10-31T07:59:37;19.60;47.50
45044;DHT22;30784;48.490;9.688;2022-10-31T08:02:03;19.80;47.60
45044;DHT22;30784;48.490;9.688;2022-10-31T08:04:28;19.90;47.70
45044;DHT22;30784;48.490;9.688;2022-10-31T08:06:54;20.10;48.00
45044;DHT22;30784;48.490;9.688;2022-10-31T08:09:19;20.20;48.10
45044;DHT22;30784;48.490;9.688;2022-10-31T08:11:45;20.30;48.20
45044;DHT22;30784;48.490;9.688;2022-10-31T08:14:10;20.50;48.40
45044;DHT22;30784;48.490;9.688;2022-10-31T08:16:36;20.60;48.90
45044;DHT22;30784;48.490;9.688;2022-10-31T08:19:01;20.60;48.90
45044;DHT22;30784;48.490;9.688;2022-10-31T08:21:27;20.70;49.10
45044;DHT22;30784;48.490;9.688;2022-10-31T08:23:52;20.80;49.10
45044;DHT22;30784;48.490;9.688;2022-10-31T08:26:18;20.90;49.10
45044;DHT22;30784;48.490;9.688;2022-10-31T08:28:43;21.00;49.10
45044;DHT22;30784;48.490;9.688;2022-10-31T08:31:09;21.00;49.10
45044;DHT22;30784;48.490;9.688;2022-10-31T08:33:35;21.10;49.20
45044;DHT22;30784;48.490;9.688;2022-10-31T08:36:01;21.20;49.10
45044;DHT22;30784;48.490;9.688;2022-10-31T08:38:26;21.20;49.10
45044;DHT22;30784;48.490;9.688;2022-10-31T08:40:52;21.40;49.10
45044;DHT22;30784;48.490;9.688;2022-10-31T08:43:18;21.50;49.00
45044;DHT22;30784;48.490;9.688;2022-10-31T08:45:47;21.60;49.00
45044;DHT22;30784;48.490;9.688;2022-10-31T08:48:15;21.70;48.90
45044;DHT22;30784;48.490;9.688;2022-10-31T08:50:41;21.80;48.90
45044;DHT22;30784;48.490;9.688;2022-10-31T08:53:18;21.90;48.80
45044;DHT22;30784;48.490;9.688;2022-10-31T08:55:45;22.00;48.60
45044;DHT22;30784;48.490;9.688;2022-10-31T08:58:13;22.10;48.60
45044;DHT22;30784;48.490;9.688;2022-10-31T09:00:39;22.20;48.40
45044;DHT22;30784;48.490;9.688;2022-10-31T09:03:12;22.30;48.20
45044;DHT22;30784;48.490;9.688;2022-10-31T09:05:38;22.40;48.10
45044;DHT22;30784;48.490;9.688;2022-10-31T09:08:05;22.40;48.00
45044;DHT22;30784;48.490;9.688;2022-10-31T09:10:32;22.50;47.80
45044;DHT22;30784;48.490;9.688;2022-10-31T09:12:59;22.60;47.80
45044;DHT22;30784;48.490;9.688;2022-10-31T09:15:26;22.70;47.40
45044;DHT22;30784;48.490;9.688;2022-10-31T09:17:52;22.80;47.30
45044;DHT22;30784;48.490;9.688;2022-10-31T09:20:19;22.80;47.20
45044;DHT22;30784;48.490;9.688;2022-10-31T09:22:45;22.90;47.00
45044;DHT22;30784;48.490;9.688;2022-10-31T09:25:10;22.90;46.90
45044;DHT22;30784;48.490;9.688;2022-10-31T09:27:36;23.00;46.80
45044;DHT22;30784;48.490;9.688;2022-10-31T09:30:03;23.10;46.70
45044;DHT22;30784;48.490;9.688;2022-10-31T09:32:28;23.00;46.60
45044;DHT22;30784;48.490;9.688;2022-10-31T09:34:54;23.10;46.40
45044;DHT22;30784;48.490;9.688;2022-10-31T09:37:19;23.10;46.50
45044;DHT22;30784;48.490;9.688;2022-10-31T09:39:45;23.10;46.60
45044;DHT22;30784;48.490;9.688;2022-10-31T09:42:47;23.20;46.70
45044;DHT22;30784;48.490;9.688;2022-10-31T09:51:04;23.30;46.40
45044;DHT22;30784;48.490;9.688;2022-10-31T09:53:50;23.40;46.70
45044;DHT22;30784;48.490;9.688;2022-10-31T09:56:21;23.40;46.30
45044;DHT22;30784;48.490;9.688;2022-10-31T09:58:53;23.50;46.20
45044;DHT22;30784;48.490;9.688;2022-10-31T10:04:50;23.50;46.30
45044;DHT22;30784;48.490;9.688;2022-10-31T10:10:00;23.60;46.20
45044;DHT22;30784;48.490;9.688;2022-10-31T10:15:33;23.70;46.20
45044;DHT22;30784;48.490;9.688;2022-10-31T10:27:05;23.80;46.00
45044;DHT22;30784;48.490;9.688;2022-10-31T10:29:39;23.80;45.80
45044;DHT22;30784;48.490;9.688;2022-10-31T10:32:17;23.70;45.80
45044;DHT22;30784;48.490;9.688;2022-10-31T10:34:49;23.70;46.20
45044;DHT22;30784;48.490;9.688;2022-10-31T10:37:36;23.70;46.40
45044;DHT22;30784;48.490;9.688;2022-10-31T10:40:25;23.70;46.40
45044;DHT22;30784;48.490;9.688;2022-10-31T10:43:18;23.70;47.00
45044;DHT22;30784;48.490;9.688;2022-10-31T10:46:13;23.70;46.50
45044;DHT22;30784;48.490;9.688;2022-10-31T10:52:16;23.70;46.10
45044;DHT22;30784;48.490;9.688;2022-10-31T11:00:26;23.70;46.20
45044;DHT22;30784;48.490;9.688;2022-10-31T11:02:53;23.70;46.40
45044;DHT22;30784;48.490;9.688;2022-10-31T11:07:54;23.70;46.00
45044;DHT22;30784;48.490;9.688;2022-10-31T11:10:19;23.70;45.90
45044;DHT22;30784;48.490;9.688;2022-10-31T11:13:02;23.70;46.10
45044;DHT22;30784;48.490;9.688;2022-10-31T11:15:32;23.80;46.00
45044;DHT22;30784;48.490;9.688;2022-10-31T11:17:59;23.80;46.00
45044;DHT22;30784;48.490;9.688;2022-10-31T11:20:33;23.80;46.10
45044;DHT22;30784;48.490;9.688;2022-10-31T11:23:03;23.80;46.00
45044;DHT22;30784;48.490;9.688;2022-10-31T11:25:29;23.90;46.20
45044;DHT22;30784;48.490;9.688;2022-10-31T11:28:07;24.00;46.30
45044;DHT22;30784;48.490;9.688;2022-10-31T11:30:47;24.10;46.20
45044;DHT22;30784;48.490;9.688;2022-10-31T11:33:29;24.30;46.10
45044;DHT22;30784;48.490;9.688;2022-10-31T11:35:57;24.40;46.00
45044;DHT22;30784;48.490;9.688;2022-10-31T11:38:30;24.60;45.60
45044;DHT22;30784;48.490;9.688;2022-10-31T11:41:15;24.70;45.50
45044;DHT22;30784;48.490;9.688;2022-10-31T11:43:48;24.90;45.20
45044;DHT22;30784;48.490;9.688;2022-10-31T11:46:25;25.00;44.10
45044;DHT22;30784;48.490;9.688;2022-10-31T11:48:54;25.10;44.40
45044;DHT22;30784;48.490;9.688;2022-10-31T11:51:22;25.20;44.20
45044;DHT22;30784;48.490;9.688;2022-10-31T11:53:55;25.30;43.70
45044;DHT22;30784;48.490;9.688;2022-10-31T11:56:22;25.40;43.70
45044;DHT22;30784;48.490;9.688;2022-10-31T11:59:14;25.60;43.60
45044;DHT22;30784;48.490;9.688;2022-10-31T12:01:47;25.70;43.60
45044;DHT22;30784;48.490;9.688;2022-10-31T12:04:13;25.80;42.70
45044;DHT22;30784;48.490;9.688;2022-10-31T12:11:54;26.10;41.40
45044;DHT22;30784;48.490;9.688;2022-10-31T12:14:50;26.20;40.50
45044;DHT22;30784;48.490;9.688;2022-10-31T12:17:23;26.20;40.50
45044;DHT22;30784;48.490;9.688;2022-10-31T12:20:18;26.30;40.20
45044;DHT22;30784;48.490;9.688;2022-10-31T12:25:55;26.20;40.10
45044;DHT22;30784;48.490;9.688;2022-10-31T12:31:43;26.00;39.80
45044;DHT22;30784;48.490;9.688;2022-10-31T12:34:34;25.90;39.70
45044;DHT22;30784;48.490;9.688;2022-10-31T12:37:15;25.80;39.30
45044;DHT22;30784;48.490;9.688;2022-10-31T12:46:06;25.50;39.10
45044;DHT22;30784;48.490;9.688;2022-10-31T12:54:25;25.10;40.00
45044;DHT22;30784;48.490;9.688;2022-10-31T12:57:22;25.00;39.90
45044;DHT22;30784;48.490;9.688;2022-10-31T12:59:53;24.80;40.10
45044;DHT22;30784;48.490;9.688;2022-10-31T13:02:22;24.70;40.10
45044;DHT22;30784;48.490;9.688;2022-10-31T13:04:56;24.60;40.40
45044;DHT22;30784;48.490;9.688;2022-10-31T13:07:43;24.40;40.60
45044;DHT22;30784;48.490;9.688;2022-10-31T13:12:39;24.10;41.20
45044;DHT22;30784;48.490;9.688;2022-10-31T13:15:15;24.00;41.60
45044;DHT22;30784;48.490;9.688;2022-10-31T13:18:21;23.80;42.10
45044;DHT22;30784;48.490;9.688;2022-10-31T13:20:41;23.70;42.00
45044;DHT22;30784;48.490;9.688;2022-10-31T13:23:45;23.70;42.40
45044;DHT22;30784;48.490;9.688;2022-10-31T13:26:20;23.50;42.00
45044;DHT22;30784;48.490;9.688;2022-10-31T13:29:00;23.50;42.70
45044;DHT22;30784;48.490;9.688;2022-10-31T13:31:26;23.30;42.80
45044;DHT22;30784;48.490;9.688;2022-10-31T13:33:57;23.30;43.40
45044;DHT22;30784;48.490;9.688;2022-10-31T13:38:51;23.10;43.80
45044;DHT22;30784;48.490;9.688;2022-10-31T13:41:57;23.10;44.00
45044;DHT22;30784;48.490;9.688;2022-10-31T13:44:27;23.00;43.40
45044;DHT22;30784;48.490;9.688;2022-10-31T13:46:54;23.00;44.20
45044;DHT22;30784;48.490;9.688;2022-10-31T13:54:42;22.90;44.10
45044;DHT22;30784;48.490;9.688;2022-10-31T13:57:28;22.90;44.50
45044;DHT22;30784;48.490;9.688;2022-10-31T13:59:58;22.90;44.40
45044;DHT22;30784;48.490;9.688;2022-10-31T14:02:30;22.80;44.90
45044;DHT22;30784;48.490;9.688;2022-10-31T14:05:21;22.70;45.00
45044;DHT22;30784;48.490;9.688;2022-10-31T14:07:44;22.70;45.60
45044;DHT22;30784;48.490;9.688;2022-10-31T14:10:32;22.70;45.60
45044;DHT22;30784;48.490;9.688;2022-10-31T14:13:13;22.70;45.40
45044;DHT22;30784;48.490;9.688;2022-10-31T14:15:43;22.70;45.50
45044;DHT22;30784;48.490;9.688;2022-10-31T14:18:25;22.70;45.90
45044;DHT22;30784;48.490;9.688;2022-10-31T14:20:54;22.80;45.70
45044;DHT22;30784;48.490;9.688;2022-10-31T14:23:36;22.90;45.90
45044;DHT22;30784;48.490;9.688;2022-10-31T14:31:43;23.10;45.30
45044;DHT22;30784;48.490;9.688;2022-10-31T14:34:22;23.10;45.10
45044;DHT22;30784;48.490;9.688;2022-10-31T14:37:03;23.20;45.10
45044;DHT22;30784;48.490;9.688;2022-10-31T14:42:39;23.30;45.10
45044;DHT22;30784;48.490;9.688;2022-10-31T14:45:18;23.30;45.00
45044;DHT22;30784;48.490;9.688;2022-10-31T14:48:10;23.40;45.10
45044;DHT22;30784;48.490;9.688;2022-10-31T14:55:46;23.40;44.80
45044;DHT22;30784;48.490;9.688;2022-10-31T14:58:17;23.40;44.80
45044;DHT22;30784;48.490;9.688;2022-10-31T15:00:44;23.40;44.80
45044;DHT22;30784;48.490;9.688;2022-10-31T15:03:16;23.40;44.80
45044;DHT22;30784;48.490;9.688;2022-10-31T15:05:51;23.40;44.80
45044;DHT22;30784;48.490;9.688;2022-10-31T15:08:35;23.40;44.90
45044;DHT22;30784;48.490;9.688;2022-10-31T15:11:09;23.30;44.70
45044;DHT22;30784;48.490;9.688;2022-10-31T15:13:51;23.30;44.80
45044;DHT22;30784;48.490;9.688;2022-10-31T15:16:24;23.30;44.70
45044;DHT22;30784;48.490;9.688;2022-10-31T15:21:20;23.20;44.70
45044;DHT22;30784;48.490;9.688;2022-10-31T15:23:47;23.10;44.70
45044;DHT22;30784;48.490;9.688;2022-10-31T15:26:18;23.10;44.70
45044;DHT22;30784;48.490;9.688;2022-10-31T15:28:44;23.00;44.70
45044;DHT22;30784;48.490;9.688;2022-10-31T15:31:15;22.90;44.70
45044;DHT22;30784;48.490;9.688;2022-10-31T15:33:42;22.90;44.70
45044;DHT22;30784;48.490;9.688;2022-10-31T15:36:22;22.80;44.80
45044;DHT22;30784;48.490;9.688;2022-10-31T15:38:49;22.70;44.70
45044;DHT22;30784;48.490;9.688;2022-10-31T15:41:29;22.70;45.00
45044;DHT22;30784;48.490;9.688;2022-10-31T15:44:01;22.50;44.90
45044;DHT22;30784;48.490;9.688;2022-10-31T15:46:27;22.40;45.20
45044;DHT22;30784;48.490;9.688;2022-10-31T15:48:53;22.30;45.30
45044;DHT22;30784;48.490;9.688;2022-10-31T15:51:26;22.30;45.20
45044;DHT22;30784;48.490;9.688;2022-10-31T15:53:53;22.20;45.20
45044;DHT22;30784;48.490;9.688;2022-10-31T15:56:29;22.20;45.30
45044;DHT22;30784;48.490;9.688;2022-10-31T15:58:57;22.10;45.20
45044;DHT22;30784;48.490;9.688;2022-10-31T16:01:31;22.00;45.10
45044;DHT22;30784;48.490;9.688;2022-10-31T16:06:26;21.90;45.20
45044;DHT22;30784;48.490;9.688;2022-10-31T16:08:51;21.80;44.60
45044;DHT22;30784;48.490;9.688;2022-10-31T16:14:05;21.70;44.60
45044;DHT22;30784;48.490;9.688;2022-10-31T16:16:33;21.60;44.50
45044;DHT22;30784;48.490;9.688;2022-10-31T16:19:00;21.50;44.40
45044;DHT22;30784;48.490;9.688;2022-10-31T16:21:31;21.50;44.50
45044;DHT22;30784;48.490;9.688;2022-10-31T16:24:15;21.40;44.40
45044;DHT22;30784;48.490;9.688;2022-10-31T16:26:42;21.30;44.50
45044;DHT22;30784;48.490;9.688;2022-10-31T16:29:25;21.20;44.40
45044;DHT22;30784;48.490;9.688;2022-10-31T16:31:51;21.10;44.40
45044;DHT22;30784;48.490;9.688;2022-10-31T16:34:20;21.10;44.50
45044;DHT22;30784;48.490;9.688;2022-10-31T16:36:46;21.00;44.60
45044;DHT22;30784;48.490;9.688;2022-10-31T16:39:11;20.90;44.60
45044;DHT22;30784;48.490;9.688;2022-10-31T16:41:41;20.80;44.50
45044;DHT22;30784;48.490;9.688;2022-10-31T16:44:15;20.80;44.60
45044;DHT22;30784;48.490;9.688;2022-10-31T16:46:42;20.70;44.50
45044;DHT22;30784;48.490;9.688;2022-10-31T16:49:09;20.70;44.60
45044;DHT22;30784;48.490;9.688;2022-10-31T16:51:35;20.50;44.60
45044;DHT22;30784;48.490;9.688;2022-10-31T16:54:00;20.50;44.70
45044;DHT22;30784;48.490;9.688;2022-10-31T16:56:31;20.40;44.90
45044;DHT22;30784;48.490;9.688;2022-10-31T16:59:03;20.40;44.90
45044;DHT22;30784;48.490;9.688;2022-10-31T17:01:29;20.30;45.00
45044;DHT22;30784;48.490;9.688;2022-10-31T17:03:55;20.20;45.00
45044;DHT22;30784;48.490;9.688;2022-10-31T17:06:21;20.20;45.10
45044;DHT22;30784;48.490;9.688;2022-10-31T17:08:46;20.20;45.20
45044;DHT22;30784;48.490;9.688;2022-10-31T17:11:16;20.10;45.90
45044;DHT22;30784;48.490;9.688;2022-10-31T17:13:42;20.10;45.40
45044;DHT22;30784;48.490;9.688;2022-10-31T17:16:08;20.00;45.40
45044;DHT22;30784;48.490;9.688;2022-10-31T17:18:34;20.00;45.60
45044;DHT22;30784;48.490;9.688;2022-10-31T17:21:02;19.90;45.70
45044;DHT22;30784;48.490;9.688;2022-10-31T17:23:29;19.90;45.80
45044;DHT22;30784;48.490;9.688;2022-10-31T17:25:55;19.80;45.80
45044;DHT22;30784;48.490;9.688;2022-10-31T17:28:21;19.80;46.00
45044;DHT22;30784;48.490;9.688;2022-10-31T17:30:47;19.70;46.00
45044;DHT22;30784;48.490;9.688;2022-10-31T17:33:14;19.60;46.20
45044;DHT22;30784;48.490;9.688;2022-10-31T17:35:43;19.60;46.20
45044;DHT22;30784;48.490;9.688;2022-10-31T17:38:09;19.50;46.30
45044;DHT22;30784;48.490;9.688;2022-10-31T17:40:36;19.50;46.50
45044;DHT22;30784;48.490;9.688;2022-10-31T17:43:02;19.40;46.60
45044;DHT22;30784;48.490;9.688;2022-10-31T17:45:28;19.40;46.70